Terminal Aerodrome Forecast
Issued by NWS

Current Version | Previous Version | Graphics & Text | Print | Product List | Glossary Off
Versions: 1 2 3 4 5 6 7 8 9 10 11 12 13 14 15 16 17

460
FTUS41 KPBZ 222228 AAB
TAFMGW
TAF AMD
KMGW 222228Z 2222/2318 17004KT 5SM -TSRA BKN025CB
     FM222300 25007KT P6SM VCSH BKN035
      TEMPO 2301/2303 -TSRA BKN035CB
     FM230500 31006KT P6SM SCT045
     FM230900 VRB03KT P6SM FEW150=

USA.gov is the U.S. government's official web portal to all federal, state and local government web resources and services.